Orion Ocean — S6IE — position and weather

sailwx.info

Track history (hours):
 
Tides and Currents Weather Stations Pressure Air Temp Water Temp Dewpoint Dewpoint Depression Visibility Wind Speed Wind Dir Waves Ship Positions

Orion Ocean

Last reported at 2018-Jul-16 17:16 UTC. Time now 2018-Jul-22 16:34 UTC.
Position N 46°08' W 125°60'.

Length 200 m; draft 13.1 m.

Type: Cargo ship. MMSI: 563507000.

Date/timePositionNaut miles runAvg speedWind from/ knotsBaromVisibWave heightAir tempDewpointWater temp
2018-Jul-16 17:16N 46°08' W 125°60'411.0
2018-Jul-16 16:53N 46°08' W 125°54'411.2
2018-Jul-16 16:30N 46°08' W 125°47'611.1
2018-Jul-16 16:00N 46°08' W 125°39'511.1
2018-Jul-16 15:30N 46°07' W 125°32'611.1
2018-Jul-16 15:00N 46°07' W 125°24'511.0
2018-Jul-16 14:31N 46°07' W 125°16'611.1
2018-Jul-16 14:00N 46°07' W 125°08'511.1
2018-Jul-16 13:30N 46°07' W 124°60'611.1
2018-Jul-16 13:00N 46°06' W 124°51'611.3
2018-Jul-16 12:30N 46°06' W 124°43'611.4
2018-Jul-16 12:00N 46°06' W 124°35'611.3
2018-Jul-16 11:31N 46°07' W 124°27'611.1
2018-Jul-16 11:01N 46°07' W 124°19'510.9
2018-Jul-16 10:31N 46°10' W 124°13'5 9.3
2018-Jul-16 10:01N 46°13' W 124°08'4 8.5
2018-Jul-16 09:31N 46°16' W 124°03'4 7.8
2018-Jul-16 09:01N 46°13' W 123°58'4 7.2
2018-Jul-16 08:31N 46°11' W 123°54'3 6.8
2018-Jul-16 08:01N 46°12' W 123°49'4 8.7
2018-Jul-16 07:31N 46°14' W 123°43'510.1
2018-Jul-16 07:01N 46°15' W 123°36'611.1
2018-Jul-16 06:30N 46°16' W 123°28'510.7
2018-Jul-16 06:00N 46°11' W 123°26'510.0
2018-Jul-16 05:30N 46°09' W 123°20'612.1
2018-Jul-16 05:00N 46°11' W 123°12'611.2
2018-Jul-16 04:30N 46°09' W 123°04'510.6
2018-Jul-16 04:00N 46°06' W 122°58'5 9.4
2018-Jul-16 03:30N 46°03' W 122°53'5 9.5
2018-Jul-16 03:00N 45°59' W 122°50'5 9.0
2018-Jul-16 02:30N 45°54' W 122°48'4 8.3
2018-Jul-16 02:00N 45°50' W 122°47'510.1
2018-Jul-16 01:30N 45°45' W 122°46'510.2
2018-Jul-16 01:00N 45°40' W 122°46'4 7.5
2018-Jul-16 00:30N 45°38' W 122°42'0 0.2
2018-Jul-15 23:45N 45°38' W 122°42'0 0.0
2018-Jul-15 23:18N 45°38' W 122°42'0 0.0
2018-Jul-15 23:00N 45°38' W 122°42'0 0.0
2018-Jul-15 22:30N 45°38' W 122°42'0 0.0
2018-Jul-15 22:00N 45°38' W 122°42'0 0.0
2018-Jul-15 21:30N 45°38' W 122°42'0 0.0
2018-Jul-15 20:57N 45°38' W 122°42'0 0.0
2018-Jul-15 20:30N 45°38' W 122°42'0 0.0
2018-Jul-15 20:00N 45°38' W 122°42'0 0.0
2018-Jul-15 19:30N 45°38' W 122°42'0 0.0
2018-Jul-15 19:00N 45°38' W 122°42'0 0.0
2018-Jul-15 18:30N 45°38' W 122°42'0 0.1
2018-Jul-15 17:57N 45°38' W 122°42'0 0.0
2018-Jul-15 17:18N 45°38' W 122°42'0 0.0
2018-Jul-15 16:57N 45°38' W 122°42'0 0.0
2018-Jul-15 16:30N 45°38' W 122°42'0 0.0
2018-Jul-15 16:00N 45°38' W 122°42'0 0.0
2018-Jul-15 15:24N 45°38' W 122°42'0 0.0
2018-Jul-15 15:00N 45°38' W 122°42'0 0.0
2018-Jul-15 14:21N 45°38' W 122°42'0 0.0
2018-Jul-15 13:57N 45°38' W 122°42'0 0.0
2018-Jul-15 13:27N 45°38' W 122°42'0 0.0
2018-Jul-15 12:51N 45°38' W 122°42'0 0.0
2018-Jul-15 12:30N 45°38' W 122°42'0 0.0
2018-Jul-15 11:57N 45°38' W 122°42'0 0.0
2018-Jul-15 11:18N 45°38' W 122°42'0 0.0
2018-Jul-15 11:00N 45°38' W 122°42'0 0.0
2018-Jul-15 10:27N 45°38' W 122°42'0 0.0
2018-Jul-15 10:00N 45°38' W 122°42'0 0.0
2018-Jul-15 09:30N 45°38' W 122°42'0 0.0
2018-Jul-15 09:00N 45°38' W 122°42'0 0.0
2018-Jul-15 08:30N 45°38' W 122°42'0 0.0
2018-Jul-15 08:00N 45°38' W 122°42'0 0.0
2018-Jul-15 07:24N 45°38' W 122°42'0 0.0
2018-Jul-15 06:57N 45°38' W 122°42'0 0.0
2018-Jul-15 06:24N 45°38' W 122°42'0 0.0
2018-Jul-15 06:00N 45°38' W 122°42'0 0.0
2018-Jul-15 05:24N 45°38' W 122°42'0 0.0
2018-Jul-15 04:33N 45°38' W 122°42'0 0.0
2018-Jul-15 04:24N 45°38' W 122°42'0 0.0
2018-Jul-15 04:00N 45°38' W 122°42'0 0.0
2018-Jul-15 03:30N 45°38' W 122°42'0 0.0
2018-Jul-15 03:00N 45°38' W 122°42'0 0.0
2018-Jul-15 02:30N 45°38' W 122°42'0 0.0
2018-Jul-15 01:57N 45°38' W 122°42'0 0.0
2018-Jul-15 01:30N 45°38' W 122°42'0 0.0
2018-Jul-15 01:00N 45°38' W 122°42'0 0.0
2018-Jul-15 00:30N 45°38' W 122°42'0 0.0
2018-Jul-14 23:54N 45°38' W 122°42'0 0.0
2018-Jul-14 23:12N 45°38' W 122°42'0 0.0
2018-Jul-14 23:00N 45°38' W 122°42'0 0.0
2018-Jul-14 22:30N 45°38' W 122°42'0 0.0
2018-Jul-14 21:54N 45°38' W 122°42'0 0.0
2018-Jul-14 21:30N 45°38' W 122°42'0 0.0
2018-Jul-14 21:00N 45°38' W 122°42'0 0.0
2018-Jul-14 20:30N 45°38' W 122°42'0 0.0
2018-Jul-14 19:51N 45°38' W 122°42'0 0.0
2018-Jul-14 19:30N 45°38' W 122°42'0 0.0
2018-Jul-14 19:00N 45°38' W 122°42'0 0.0
2018-Jul-14 18:27N 45°38' W 122°42'0 0.0
2018-Jul-14 17:54N 45°38' W 122°42'0 0.0
2018-Jul-14 17:30N 45°38' W 122°42'0 0.0
2018-Jul-14 17:00N 45°38' W 122°42'0 0.0
2018-Jul-14 16:30N 45°38' W 122°42'0 0.0
2018-Jul-14 15:54N 45°38' W 122°42'0 0.0
2018-Jul-14 15:30N 45°38' W 122°42'0 0.0
2018-Jul-14 15:00N 45°38' W 122°42'0 0.0
2018-Jul-14 14:30N 45°38' W 122°42'0 0.0
2018-Jul-14 13:27N 45°38' W 122°42'0 0.0
2018-Jul-14 13:00N 45°38' W 122°42'0 0.0
2018-Jul-14 12:30N 45°38' W 122°42'0 0.0
2018-Jul-14 11:54N 45°38' W 122°42'0 0.0
2018-Jul-14 11:15N 45°38' W 122°42'0 0.0
2018-Jul-14 11:00N 45°38' W 122°42'0 0.0
2018-Jul-14 10:21N 45°38' W 122°42'0 0.0
2018-Jul-14 10:00N 45°38' W 122°42'0 0.0
2018-Jul-14 09:06N 45°38' W 122°42'0 0.1
2018-Jul-14 09:00N 45°38' W 122°42'0 0.0
2018-Jul-14 08:30N 45°38' W 122°42'0 0.0
2018-Jul-14 07:51N 45°38' W 122°42'0 0.0
2018-Jul-14 07:27N 45°38' W 122°42'0 0.0
2018-Jul-14 06:48N 45°38' W 122°42'0 0.0
2018-Jul-14 06:30N 45°38' W 122°42'0 0.0
2018-Jul-14 05:57N 45°38' W 122°42'0 0.0
2018-Jul-14 05:27N 45°38' W 122°42'0 0.0
2018-Jul-14 04:33N 45°38' W 122°42'0 0.0
2018-Jul-14 04:30N 45°38' W 122°42'0 0.0
2018-Jul-14 04:00N 45°38' W 122°42'0 0.0
2018-Jul-14 03:12N 45°38' W 122°42'0 0.0
2018-Jul-14 03:00N 45°38' W 122°42'0 0.0
2018-Jul-14 02:30N 45°38' W 122°42'0 0.0
2018-Jul-14 01:36N 45°38' W 122°42'0 0.0
2018-Jul-14 01:27N 45°38' W 122°42'0 0.0
2018-Jul-14 00:57N 45°38' W 122°42'0 0.0
2018-Jul-14 00:27N 45°38' W 122°42'0 0.0
2018-Jul-13 23:42N 45°38' W 122°42'0 0.0
2018-Jul-13 23:30N 45°38' W 122°42'0 0.0
2018-Jul-13 23:00N 45°38' W 122°42'0 0.0
2018-Jul-13 22:21N 45°38' W 122°42'0 0.0
2018-Jul-13 21:54N 45°38' W 122°42'0 0.0
2018-Jul-13 21:30N 45°38' W 122°42'0 0.0
2018-Jul-13 20:54N 45°38' W 122°42'0 0.0
2018-Jul-13 20:06N 45°38' W 122°42'0 0.0
2018-Jul-13 20:00N 45°38' W 122°42'0 0.0
2018-Jul-13 19:30N 45°38' W 122°42'0 0.0
2018-Jul-13 19:00N 45°38' W 122°42'0 0.0
2018-Jul-13 18:30N 45°38' W 122°42'0 0.0
2018-Jul-13 17:48N 45°38' W 122°42'0 0.0
2018-Jul-13 17:30N 45°38' W 122°42'0 0.0
2018-Jul-13 17:00N 45°38' W 122°42'0 0.0
2018-Jul-13 16:30N 45°38' W 122°42'0 0.0
2018-Jul-13 16:00N 45°38' W 122°42'0 0.0
2018-Jul-13 15:27N 45°38' W 122°42'0 0.0
2018-Jul-13 14:57N 45°38' W 122°42'0 0.0
2018-Jul-13 13:48N 45°38' W 122°42'0 0.0
2018-Jul-13 13:30N 45°38' W 122°42'0 0.0
2018-Jul-13 12:57N 45°38' W 122°42'0 0.0
2018-Jul-13 12:27N 45°38' W 122°42'0 0.0
2018-Jul-13 12:00N 45°38' W 122°42'0 0.0
2018-Jul-13 11:24N 45°38' W 122°42'0 0.0
2018-Jul-13 10:51N 45°38' W 122°42'0 0.0
2018-Jul-13 10:18N 45°38' W 122°42'0 0.0
2018-Jul-13 09:51N 45°38' W 122°42'0 0.0
2018-Jul-13 09:24N 45°38' W 122°42'0 0.0
2018-Jul-13 09:00N 45°38' W 122°42'0 0.0
2018-Jul-13 08:21N 45°38' W 122°42'0 0.0
2018-Jul-13 08:00N 45°38' W 122°42'0 0.0
2018-Jul-13 07:27N 45°38' W 122°42'0 0.0
2018-Jul-13 06:54N 45°38' W 122°42'0 0.0
2018-Jul-13 06:30N 45°38' W 122°42'0 0.0
2018-Jul-13 05:57N 45°38' W 122°42'0 0.0
2018-Jul-13 05:30N 45°38' W 122°42'0 0.0
2018-Jul-13 05:00N 45°38' W 122°42'0 0.0
2018-Jul-13 04:27N 45°38' W 122°42'0 0.0
2018-Jul-13 04:00N 45°38' W 122°42'0 0.0
2018-Jul-13 03:30N 45°38' W 122°42'0 0.0
2018-Jul-13 03:00N 45°38' W 122°42'0 0.0
2018-Jul-13 02:30N 45°38' W 122°42'0 0.0
2018-Jul-13 01:54N 45°38' W 122°42'0 0.0
2018-Jul-13 01:30N 45°38' W 122°42'0 0.0
2018-Jul-13 00:57N 45°38' W 122°42'0 0.0
2018-Jul-13 00:24N 45°38' W 122°42'0 0.0
2018-Jul-13 00:00N 45°38' W 122°42'0 0.0
2018-Jul-12 23:30N 45°38' W 122°42'0 0.0
2018-Jul-12 23:00N 45°38' W 122°42'0 0.0
2018-Jul-12 22:30N 45°38' W 122°42'0 0.0
2018-Jul-12 22:00N 45°38' W 122°42'0 0.0
2018-Jul-12 21:30N 45°38' W 122°42'0 0.0
2018-Jul-12 20:51N 45°38' W 122°42'0 0.0
2018-Jul-12 20:30N 45°38' W 122°42'0 0.0
2018-Jul-12 20:00N 45°38' W 122°42'0 0.0
2018-Jul-12 19:30N 45°38' W 122°42'0 0.0
2018-Jul-12 19:00N 45°38' W 122°42'0 0.0
2018-Jul-12 18:30N 45°38' W 122°42'0 0.0
2018-Jul-12 18:00N 45°38' W 122°42'0 0.0
2018-Jul-12 17:21N 45°38' W 122°42'0 0.0
2018-Jul-12 17:00N 45°38' W 122°42'0 0.0
2018-Jul-12 16:30N 45°38' W 122°42'0 0.0
2018-Jul-12 16:00N 45°38' W 122°42'0 1.0
2018-Jul-12 15:30N 45°38' W 122°42'4 9.0
2018-Jul-12 15:00N 45°41' W 122°47'611.3
2018-Jul-12 14:31N 45°47' W 122°46'510.5
2018-Jul-12 14:01N 45°52' W 122°47'510.8
2018-Jul-12 13:30N 45°58' W 122°49'611.0
2018-Jul-12 13:00N 46°02' W 122°53'710.1
2018-Jul-12 12:18N 46°08' W 122°60'311.4
2018-Jul-12 12:01N 46°09' W 123°04'510.9
2018-Jul-12 11:30N 46°11' W 123°11'910.3
2018-Jul-12 10:36N 46°10' W 123°25'110.8
2018-Jul-12 10:30N 46°11' W 123°26'7 9.3
2018-Jul-12 09:48N 46°16' W 123°32'412.3
2018-Jul-12 09:31N 46°15' W 123°37'711.4
2018-Jul-12 08:54N 46°13' W 123°46'1 0.6
2018-Jul-12 07:57N 46°13' W 123°47'0 0.1
2018-Jul-12 07:30N 46°13' W 123°47'0 0.0
2018-Jul-12 06:57N 46°13' W 123°47'0 0.1
2018-Jul-12 06:30N 46°13' W 123°47'0 0.0
2018-Jul-12 06:00N 46°13' W 123°47'0 0.2
2018-Jul-12 05:30N 46°13' W 123°47'0 0.1
2018-Jul-12 05:00N 46°13' W 123°47'0 0.1
2018-Jul-12 04:24N 46°13' W 123°47'0 0.0
2018-Jul-12 04:00N 46°13' W 123°47'0 0.0
2018-Jul-12 03:30N 46°13' W 123°47'0 0.2
2018-Jul-12 02:48N 46°13' W 123°47'0 0.1
2018-Jul-12 02:30N 46°13' W 123°47'0 0.0
2018-Jul-12 02:00N 46°13' W 123°47'0 0.0
2018-Jul-12 01:30N 46°13' W 123°47'0 0.1
2018-Jul-12 01:00N 46°13' W 123°48'0 0.0
2018-Jul-12 00:30N 46°13' W 123°48'0 0.0
2018-Jul-12 00:00N 46°13' W 123°48'0 0.1
2018-Jul-11 23:30N 46°13' W 123°47'0 0.1
2018-Jul-11 23:00N 46°13' W 123°47'0 0.1
2018-Jul-11 22:30N 46°13' W 123°47'0 0.4
2018-Jul-11 22:00N 46°13' W 123°47'0 0.2
2018-Jul-11 21:30N 46°13' W 123°47'0 0.1
2018-Jul-11 21:00N 46°13' W 123°47'0 0.0
2018-Jul-11 20:30N 46°13' W 123°47'0 0.1
2018-Jul-11 19:57N 46°13' W 123°47'0 0.0
2018-Jul-11 19:30N 46°13' W 123°47'0 0.0
2018-Jul-11 19:00N 46°13' W 123°47'0 0.0
2018-Jul-11 18:30N 46°13' W 123°47'0 0.0
2018-Jul-11 18:00N 46°13' W 123°47'0 0.1
2018-Jul-11 17:24N 46°13' W 123°47'0 0.0
2018-Jul-11 17:00N 46°13' W 123°47'0 0.0
2018-Jul-11 16:30N 46°13' W 123°47'0 0.3
2018-Jul-11 16:00N 46°13' W 123°47'0 0.2
2018-Jul-11 15:30N 46°13' W 123°47'0 0.0
2018-Jul-11 15:00N 46°13' W 123°47'0 0.0
2018-Jul-11 14:30N 46°13' W 123°47'0 0.2
2018-Jul-11 14:00N 46°13' W 123°47'2 4.7
2018-Jul-11 13:31N 46°12' W 123°50'4 8.5
2018-Jul-11 13:00N 46°12' W 123°56'4 8.8
2018-Jul-11 12:30N 46°15' W 124°01'4 8.1
2018-Jul-11 12:01N 46°14' W 124°07'510.5
2018-Jul-11 11:31N 46°11' W 124°13'510.3
2018-Jul-11 11:01N 46°08' W 124°19'710.8
2018-Jul-11 10:19N 46°06' W 124°29'311.2
2018-Jul-11 10:00N 46°06' W 124°34'611.9
2018-Jul-11 09:30N 46°06' W 124°43'612.5
2018-Jul-11 09:00N 46°06' W 124°52'612.6
2018-Jul-11 08:30N 46°06' W 125°01'612.7
2018-Jul-11 08:00N 46°07' W 125°10'612.6
2018-Jul-11 07:30N 46°07' W 125°19'712.6
2018-Jul-11 06:59N 46°07' W 125°28'612.9
2018-Jul-11 06:30N 46°07' W 125°37'913.0
2018-Jul-11 05:48N 46°07' W 125°51'512.7
2018-Jul-11 05:23N 46°07' W 125°58'1512.6
2018-Jul-11 04:11N 46°08' W 126°20'412.6
2018-Jul-11 03:51N 46°08' W 126°26'  
Track history (hours):
 
Tides and Currents Weather Stations Pressure Air Temp Water Temp Dewpoint Dewpoint Depression Visibility Wind Speed Wind Dir Waves Ship Positions

Orion Ocean

Last reported at 2018-Jul-16 17:16 UTC. Time now 2018-Jul-22 16:34 UTC.
Position N 46°08' W 125°60'.

Length 200 m; draft 13.1 m.

Type: Cargo ship. MMSI: 563507000.

Date/timePositionNaut miles runAvg speedWind from/ knotsBaromVisibWave heightAir tempDewpointWater temp
2018-Jul-16 17:16N 46°08' W 125°60'411.0
2018-Jul-16 16:53N 46°08' W 125°54'411.2
2018-Jul-16 16:30N 46°08' W 125°47'611.1
2018-Jul-16 16:00N 46°08' W 125°39'511.1
2018-Jul-16 15:30N 46°07' W 125°32'611.1
2018-Jul-16 15:00N 46°07' W 125°24'511.0
2018-Jul-16 14:31N 46°07' W 125°16'611.1
2018-Jul-16 14:00N 46°07' W 125°08'511.1
2018-Jul-16 13:30N 46°07' W 124°60'611.1
2018-Jul-16 13:00N 46°06' W 124°51'611.3
2018-Jul-16 12:30N 46°06' W 124°43'611.4
2018-Jul-16 12:00N 46°06' W 124°35'611.3
2018-Jul-16 11:31N 46°07' W 124°27'611.1
2018-Jul-16 11:01N 46°07' W 124°19'510.9
2018-Jul-16 10:31N 46°10' W 124°13'5 9.3
2018-Jul-16 10:01N 46°13' W 124°08'4 8.5
2018-Jul-16 09:31N 46°16' W 124°03'4 7.8
2018-Jul-16 09:01N 46°13' W 123°58'4 7.2
2018-Jul-16 08:31N 46°11' W 123°54'3 6.8
2018-Jul-16 08:01N 46°12' W 123°49'4 8.7
2018-Jul-16 07:31N 46°14' W 123°43'510.1
2018-Jul-16 07:01N 46°15' W 123°36'611.1
2018-Jul-16 06:30N 46°16' W 123°28'510.7
2018-Jul-16 06:00N 46°11' W 123°26'510.0
2018-Jul-16 05:30N 46°09' W 123°20'612.1
2018-Jul-16 05:00N 46°11' W 123°12'611.2
2018-Jul-16 04:30N 46°09' W 123°04'510.6
2018-Jul-16 04:00N 46°06' W 122°58'5 9.4
2018-Jul-16 03:30N 46°03' W 122°53'5 9.5
2018-Jul-16 03:00N 45°59' W 122°50'5 9.0
2018-Jul-16 02:30N 45°54' W 122°48'4 8.3
2018-Jul-16 02:00N 45°50' W 122°47'510.1
2018-Jul-16 01:30N 45°45' W 122°46'510.2
2018-Jul-16 01:00N 45°40' W 122°46'4 7.5
2018-Jul-16 00:30N 45°38' W 122°42'0 0.2
2018-Jul-15 23:45N 45°38' W 122°42'0 0.0
2018-Jul-15 23:18N 45°38' W 122°42'0 0.0
2018-Jul-15 23:00N 45°38' W 122°42'0 0.0
2018-Jul-15 22:30N 45°38' W 122°42'0 0.0
2018-Jul-15 22:00N 45°38' W 122°42'0 0.0
2018-Jul-15 21:30N 45°38' W 122°42'0 0.0
2018-Jul-15 20:57N 45°38' W 122°42'0 0.0
2018-Jul-15 20:30N 45°38' W 122°42'0 0.0
2018-Jul-15 20:00N 45°38' W 122°42'0 0.0
2018-Jul-15 19:30N 45°38' W 122°42'0 0.0
2018-Jul-15 19:00N 45°38' W 122°42'0 0.0
2018-Jul-15 18:30N 45°38' W 122°42'0 0.1
2018-Jul-15 17:57N 45°38' W 122°42'0 0.0
2018-Jul-15 17:18N 45°38' W 122°42'0 0.0
2018-Jul-15 16:57N 45°38' W 122°42'0 0.0
2018-Jul-15 16:30N 45°38' W 122°42'0 0.0
2018-Jul-15 16:00N 45°38' W 122°42'0 0.0
2018-Jul-15 15:24N 45°38' W 122°42'0 0.0
2018-Jul-15 15:00N 45°38' W 122°42'0 0.0
2018-Jul-15 14:21N 45°38' W 122°42'0 0.0
2018-Jul-15 13:57N 45°38' W 122°42'0 0.0
2018-Jul-15 13:27N 45°38' W 122°42'0 0.0
2018-Jul-15 12:51N 45°38' W 122°42'0 0.0
2018-Jul-15 12:30N 45°38' W 122°42'0 0.0
2018-Jul-15 11:57N 45°38' W 122°42'0 0.0
2018-Jul-15 11:18N 45°38' W 122°42'0 0.0
2018-Jul-15 11:00N 45°38' W 122°42'0 0.0
2018-Jul-15 10:27N 45°38' W 122°42'0 0.0
2018-Jul-15 10:00N 45°38' W 122°42'0 0.0
2018-Jul-15 09:30N 45°38' W 122°42'0 0.0
2018-Jul-15 09:00N 45°38' W 122°42'0 0.0
2018-Jul-15 08:30N 45°38' W 122°42'0 0.0
2018-Jul-15 08:00N 45°38' W 122°42'0 0.0
2018-Jul-15 07:24N 45°38' W 122°42'0 0.0
2018-Jul-15 06:57N 45°38' W 122°42'0 0.0
2018-Jul-15 06:24N 45°38' W 122°42'0 0.0
2018-Jul-15 06:00N 45°38' W 122°42'0 0.0
2018-Jul-15 05:24N 45°38' W 122°42'0 0.0
2018-Jul-15 04:33N 45°38' W 122°42'0 0.0
2018-Jul-15 04:24N 45°38' W 122°42'0 0.0
2018-Jul-15 04:00N 45°38' W 122°42'0 0.0
2018-Jul-15 03:30N 45°38' W 122°42'0 0.0
2018-Jul-15 03:00N 45°38' W 122°42'0 0.0
2018-Jul-15 02:30N 45°38' W 122°42'0 0.0
2018-Jul-15 01:57N 45°38' W 122°42'0 0.0
2018-Jul-15 01:30N 45°38' W 122°42'0 0.0
2018-Jul-15 01:00N 45°38' W 122°42'0 0.0
2018-Jul-15 00:30N 45°38' W 122°42'0 0.0
2018-Jul-14 23:54N 45°38' W 122°42'0 0.0
2018-Jul-14 23:12N 45°38' W 122°42'0 0.0
2018-Jul-14 23:00N 45°38' W 122°42'0 0.0
2018-Jul-14 22:30N 45°38' W 122°42'0 0.0
2018-Jul-14 21:54N 45°38' W 122°42'0 0.0
2018-Jul-14 21:30N 45°38' W 122°42'0 0.0
2018-Jul-14 21:00N 45°38' W 122°42'0 0.0
2018-Jul-14 20:30N 45°38' W 122°42'0 0.0
2018-Jul-14 19:51N 45°38' W 122°42'0 0.0
2018-Jul-14 19:30N 45°38' W 122°42'0 0.0
2018-Jul-14 19:00N 45°38' W 122°42'0 0.0
2018-Jul-14 18:27N 45°38' W 122°42'0 0.0
2018-Jul-14 17:54N 45°38' W 122°42'0 0.0
2018-Jul-14 17:30N 45°38' W 122°42'0 0.0
2018-Jul-14 17:00N 45°38' W 122°42'0 0.0
2018-Jul-14 16:30N 45°38' W 122°42'0 0.0
2018-Jul-14 15:54N 45°38' W 122°42'0 0.0
2018-Jul-14 15:30N 45°38' W 122°42'0 0.0
2018-Jul-14 15:00N 45°38' W 122°42'0 0.0
2018-Jul-14 14:30N 45°38' W 122°42'0 0.0
2018-Jul-14 13:27N 45°38' W 122°42'0 0.0
2018-Jul-14 13:00N 45°38' W 122°42'0 0.0
2018-Jul-14 12:30N 45°38' W 122°42'0 0.0
2018-Jul-14 11:54N 45°38' W 122°42'0 0.0
2018-Jul-14 11:15N 45°38' W 122°42'0 0.0
2018-Jul-14 11:00N 45°38' W 122°42'0 0.0
2018-Jul-14 10:21N 45°38' W 122°42'0 0.0
2018-Jul-14 10:00N 45°38' W 122°42'0 0.0
2018-Jul-14 09:06N 45°38' W 122°42'0 0.1
2018-Jul-14 09:00N 45°38' W 122°42'0 0.0
2018-Jul-14 08:30N 45°38' W 122°42'0 0.0
2018-Jul-14 07:51N 45°38' W 122°42'0 0.0
2018-Jul-14 07:27N 45°38' W 122°42'0 0.0
2018-Jul-14 06:48N 45°38' W 122°42'0 0.0
2018-Jul-14 06:30N 45°38' W 122°42'0 0.0
2018-Jul-14 05:57N 45°38' W 122°42'0 0.0
2018-Jul-14 05:27N 45°38' W 122°42'0 0.0
2018-Jul-14 04:33N 45°38' W 122°42'0 0.0
2018-Jul-14 04:30N 45°38' W 122°42'0 0.0
2018-Jul-14 04:00N 45°38' W 122°42'0 0.0
2018-Jul-14 03:12N 45°38' W 122°42'0 0.0
2018-Jul-14 03:00N 45°38' W 122°42'0 0.0
2018-Jul-14 02:30N 45°38' W 122°42'0 0.0
2018-Jul-14 01:36N 45°38' W 122°42'0 0.0
2018-Jul-14 01:27N 45°38' W 122°42'0 0.0
2018-Jul-14 00:57N 45°38' W 122°42'0 0.0
2018-Jul-14 00:27N 45°38' W 122°42'0 0.0
2018-Jul-13 23:42N 45°38' W 122°42'0 0.0
2018-Jul-13 23:30N 45°38' W 122°42'0 0.0
2018-Jul-13 23:00N 45°38' W 122°42'0 0.0
2018-Jul-13 22:21N 45°38' W 122°42'0 0.0
2018-Jul-13 21:54N 45°38' W 122°42'0 0.0
2018-Jul-13 21:30N 45°38' W 122°42'0 0.0
2018-Jul-13 20:54N 45°38' W 122°42'0 0.0
2018-Jul-13 20:06N 45°38' W 122°42'0 0.0
2018-Jul-13 20:00N 45°38' W 122°42'0 0.0
2018-Jul-13 19:30N 45°38' W 122°42'0 0.0
2018-Jul-13 19:00N 45°38' W 122°42'0 0.0
2018-Jul-13 18:30N 45°38' W 122°42'0 0.0
2018-Jul-13 17:48N 45°38' W 122°42'0 0.0
2018-Jul-13 17:30N 45°38' W 122°42'0 0.0
2018-Jul-13 17:00N 45°38' W 122°42'0 0.0
2018-Jul-13 16:30N 45°38' W 122°42'0 0.0
2018-Jul-13 16:00N 45°38' W 122°42'0 0.0
2018-Jul-13 15:27N 45°38' W 122°42'0 0.0
2018-Jul-13 14:57N 45°38' W 122°42'0 0.0
2018-Jul-13 13:48N 45°38' W 122°42'0 0.0
2018-Jul-13 13:30N 45°38' W 122°42'0 0.0
2018-Jul-13 12:57N 45°38' W 122°42'0 0.0
2018-Jul-13 12:27N 45°38' W 122°42'0 0.0
2018-Jul-13 12:00N 45°38' W 122°42'0 0.0
2018-Jul-13 11:24N 45°38' W 122°42'0 0.0
2018-Jul-13 10:51N 45°38' W 122°42'0 0.0
2018-Jul-13 10:18N 45°38' W 122°42'0 0.0
2018-Jul-13 09:51N 45°38' W 122°42'0 0.0
2018-Jul-13 09:24N 45°38' W 122°42'0 0.0
2018-Jul-13 09:00N 45°38' W 122°42'0 0.0
2018-Jul-13 08:21N 45°38' W 122°42'0 0.0
2018-Jul-13 08:00N 45°38' W 122°42'0 0.0
2018-Jul-13 07:27N 45°38' W 122°42'0 0.0
2018-Jul-13 06:54N 45°38' W 122°42'0 0.0
2018-Jul-13 06:30N 45°38' W 122°42'0 0.0
2018-Jul-13 05:57N 45°38' W 122°42'0 0.0
2018-Jul-13 05:30N 45°38' W 122°42'0 0.0
2018-Jul-13 05:00N 45°38' W 122°42'0 0.0
2018-Jul-13 04:27N 45°38' W 122°42'0 0.0
2018-Jul-13 04:00N 45°38' W 122°42'0 0.0
2018-Jul-13 03:30N 45°38' W 122°42'0 0.0
2018-Jul-13 03:00N 45°38' W 122°42'0 0.0
2018-Jul-13 02:30N 45°38' W 122°42'0 0.0
2018-Jul-13 01:54N 45°38' W 122°42'0 0.0
2018-Jul-13 01:30N 45°38' W 122°42'0 0.0
2018-Jul-13 00:57N 45°38' W 122°42'0 0.0
2018-Jul-13 00:24N 45°38' W 122°42'0 0.0
2018-Jul-13 00:00N 45°38' W 122°42'0 0.0
2018-Jul-12 23:30N 45°38' W 122°42'0 0.0
2018-Jul-12 23:00N 45°38' W 122°42'0 0.0
2018-Jul-12 22:30N 45°38' W 122°42'0 0.0
2018-Jul-12 22:00N 45°38' W 122°42'0 0.0
2018-Jul-12 21:30N 45°38' W 122°42'0 0.0
2018-Jul-12 20:51N 45°38' W 122°42'0 0.0
2018-Jul-12 20:30N 45°38' W 122°42'0 0.0
2018-Jul-12 20:00N 45°38' W 122°42'0 0.0
2018-Jul-12 19:30N 45°38' W 122°42'0 0.0
2018-Jul-12 19:00N 45°38' W 122°42'0 0.0
2018-Jul-12 18:30N 45°38' W 122°42'0 0.0
2018-Jul-12 18:00N 45°38' W 122°42'0 0.0
2018-Jul-12 17:21N 45°38' W 122°42'0 0.0
2018-Jul-12 17:00N 45°38' W 122°42'0 0.0
2018-Jul-12 16:30N 45°38' W 122°42'0 0.0
2018-Jul-12 16:00N 45°38' W 122°42'0 1.0
2018-Jul-12 15:30N 45°38' W 122°42'4 9.0
2018-Jul-12 15:00N 45°41' W 122°47'611.3
2018-Jul-12 14:31N 45°47' W 122°46'510.5
2018-Jul-12 14:01N 45°52' W 122°47'510.8
2018-Jul-12 13:30N 45°58' W 122°49'611.0
2018-Jul-12 13:00N 46°02' W 122°53'710.1
2018-Jul-12 12:18N 46°08' W 122°60'311.4
2018-Jul-12 12:01N 46°09' W 123°04'510.9
2018-Jul-12 11:30N 46°11' W 123°11'910.3
2018-Jul-12 10:36N 46°10' W 123°25'110.8
2018-Jul-12 10:30N 46°11' W 123°26'7 9.3
2018-Jul-12 09:48N 46°16' W 123°32'412.3
2018-Jul-12 09:31N 46°15' W 123°37'711.4
2018-Jul-12 08:54N 46°13' W 123°46'1 0.6
2018-Jul-12 07:57N 46°13' W 123°47'0 0.1
2018-Jul-12 07:30N 46°13' W 123°47'0 0.0
2018-Jul-12 06:57N 46°13' W 123°47'0 0.1
2018-Jul-12 06:30N 46°13' W 123°47'0 0.0
2018-Jul-12 06:00N 46°13' W 123°47'0 0.2
2018-Jul-12 05:30N 46°13' W 123°47'0 0.1
2018-Jul-12 05:00N 46°13' W 123°47'0 0.1
2018-Jul-12 04:24N 46°13' W 123°47'0 0.0
2018-Jul-12 04:00N 46°13' W 123°47'0 0.0
2018-Jul-12 03:30N 46°13' W 123°47'0 0.2
2018-Jul-12 02:48N 46°13' W 123°47'0 0.1
2018-Jul-12 02:30N 46°13' W 123°47'0 0.0
2018-Jul-12 02:00N 46°13' W 123°47'0 0.0
2018-Jul-12 01:30N 46°13' W 123°47'0 0.1
2018-Jul-12 01:00N 46°13' W 123°48'0 0.0
2018-Jul-12 00:30N 46°13' W 123°48'0 0.0
2018-Jul-12 00:00N 46°13' W 123°48'0 0.1
2018-Jul-11 23:30N 46°13' W 123°47'0 0.1
2018-Jul-11 23:00N 46°13' W 123°47'0 0.1
2018-Jul-11 22:30N 46°13' W 123°47'0 0.4
2018-Jul-11 22:00N 46°13' W 123°47'0 0.2
2018-Jul-11 21:30N 46°13' W 123°47'0 0.1
2018-Jul-11 21:00N 46°13' W 123°47'0 0.0
2018-Jul-11 20:30N 46°13' W 123°47'0 0.1
2018-Jul-11 19:57N 46°13' W 123°47'0 0.0
2018-Jul-11 19:30N 46°13' W 123°47'0 0.0
2018-Jul-11 19:00N 46°13' W 123°47'0 0.0
2018-Jul-11 18:30N 46°13' W 123°47'0 0.0
2018-Jul-11 18:00N 46°13' W 123°47'0 0.1
2018-Jul-11 17:24N 46°13' W 123°47'0 0.0
2018-Jul-11 17:00N 46°13' W 123°47'0 0.0
2018-Jul-11 16:30N 46°13' W 123°47'0 0.3
2018-Jul-11 16:00N 46°13' W 123°47'0 0.2
2018-Jul-11 15:30N 46°13' W 123°47'0 0.0
2018-Jul-11 15:00N 46°13' W 123°47'0 0.0
2018-Jul-11 14:30N 46°13' W 123°47'0 0.2
2018-Jul-11 14:00N 46°13' W 123°47'2 4.7
2018-Jul-11 13:31N 46°12' W 123°50'4 8.5
2018-Jul-11 13:00N 46°12' W 123°56'4 8.8
2018-Jul-11 12:30N 46°15' W 124°01'4 8.1
2018-Jul-11 12:01N 46°14' W 124°07'510.5
2018-Jul-11 11:31N 46°11' W 124°13'510.3
2018-Jul-11 11:01N 46°08' W 124°19'710.8
2018-Jul-11 10:19N 46°06' W 124°29'311.2
2018-Jul-11 10:00N 46°06' W 124°34'611.9
2018-Jul-11 09:30N 46°06' W 124°43'612.5
2018-Jul-11 09:00N 46°06' W 124°52'612.6
2018-Jul-11 08:30N 46°06' W 125°01'612.7
2018-Jul-11 08:00N 46°07' W 125°10'612.6
2018-Jul-11 07:30N 46°07' W 125°19'712.6
2018-Jul-11 06:59N 46°07' W 125°28'612.9
2018-Jul-11 06:30N 46°07' W 125°37'913.0
2018-Jul-11 05:48N 46°07' W 125°51'512.7
2018-Jul-11 05:23N 46°07' W 125°58'1512.6
2018-Jul-11 04:11N 46°08' W 126°20'412.6
2018-Jul-11 03:51N 46°08' W 126°26'  

Dump ship's entire track history